createdAt,value
2023-02-06T00:01:45.981Z,90.10
2023-02-06T00:04:14.936Z,90.10
2023-02-06T00:06:43.660Z,90.57
2023-02-06T00:09:12.529Z,90.36
2023-02-06T00:11:41.905Z,90.67
2023-02-06T00:14:10.000Z,90.29
2023-02-06T00:16:38.368Z,90.47
2023-02-06T00:19:06.603Z,90.31
2023-02-06T00:21:34.970Z,90.36
2023-02-06T00:24:03.992Z,90.35
2023-02-06T00:26:32.521Z,90.41
2023-02-06T00:29:01.951Z,90.79
2023-02-06T00:31:30.386Z,90.67
2023-02-06T00:33:58.525Z,90.91
2023-02-06T00:36:26.652Z,90.93
2023-02-06T00:38:54.716Z,91.02
2023-02-06T00:41:22.832Z,90.89
2023-02-06T00:43:50.849Z,91.12
2023-02-06T00:46:20.274Z,90.93
2023-02-06T00:48:48.387Z,90.90
2023-02-06T00:51:16.454Z,90.77
2023-02-06T00:53:44.500Z,91.05
2023-02-06T00:56:12.566Z,91.13
2023-02-06T00:58:40.592Z,90.90
2023-02-06T01:01:09.084Z,90.97
2023-02-06T01:03:38.882Z,90.69
2023-02-06T01:06:07.304Z,90.88
2023-02-06T01:08:35.340Z,90.75
2023-02-06T01:11:03.376Z,91.11
2023-02-06T01:13:31.483Z,90.95
2023-02-06T01:15:59.517Z,90.99
2023-02-06T01:18:27.691Z,90.86
2023-02-06T01:20:57.074Z,90.84
2023-02-06T01:23:25.979Z,90.56
2023-02-06T01:25:54.043Z,90.94
2023-02-06T01:28:22.135Z,90.92
2023-02-06T01:30:50.197Z,90.48
2023-02-06T01:33:18.331Z,90.44
2023-02-06T01:35:46.770Z,90.61
2023-02-06T01:38:16.144Z,90.38
2023-02-06T01:40:44.229Z,90.45
2023-02-06T01:43:19.158Z,90.01
2023-02-06T01:45:48.437Z,90.42
2023-02-06T01:48:21.873Z,90.65
2023-02-06T01:50:55.383Z,90.27
2023-02-06T01:53:27.409Z,90.38
2023-02-06T01:55:57.497Z,90.30
2023-02-06T01:58:32.814Z,90.55
2023-02-06T02:01:04.033Z,91.32
2023-02-06T02:03:36.782Z,91.10
2023-02-06T02:06:10.306Z,91.20
2023-02-06T02:08:43.408Z,90.81
2023-02-06T02:11:17.996Z,91.12
2023-02-06T02:13:46.879Z,90.61
2023-02-06T02:16:24.445Z,90.43
2023-02-06T02:19:17.182Z,90.16
2023-02-06T02:22:24.404Z,90.32
2023-02-06T02:25:41.529Z,90.61
2023-02-06T02:28:43.178Z,90.32
2023-02-06T02:31:55.755Z,90.24
2023-02-06T02:35:14.640Z,90.28
2023-02-06T02:38:01.205Z,90.48
2023-02-06T02:40:41.333Z,90.88
2023-02-06T02:43:26.024Z,90.52
2023-02-06T02:46:03.795Z,90.99
2023-02-06T02:48:38.789Z,90.46
2023-02-06T02:51:11.293Z,90.27
2023-02-06T02:53:39.805Z,90.47
2023-02-06T02:56:18.616Z,89.64
2023-02-06T02:58:51.918Z,90.18
2023-02-06T03:01:26.780Z,89.79
2023-02-06T03:03:59.380Z,89.95
2023-02-06T03:07:03.924Z,89.65
2023-02-06T03:09:49.502Z,89.97
2023-02-06T03:12:29.129Z,89.46
2023-02-06T03:15:05.023Z,89.68
2023-02-06T03:17:41.927Z,88.67
2023-02-06T03:20:12.552Z,88.96
2023-02-06T03:22:46.277Z,88.04
2023-02-06T03:25:21.310Z,88.13
2023-02-06T03:27:51.892Z,87.84
2023-02-06T03:30:24.805Z,87.79
2023-02-06T03:33:02.380Z,87.85
2023-02-06T03:35:37.137Z,87.86
2023-02-06T03:38:10.163Z,87.95
2023-02-06T03:40:44.231Z,87.97
2023-02-06T03:43:18.557Z,88.52
2023-02-06T03:45:52.440Z,87.87
2023-02-06T03:48:28.569Z,87.95
2023-02-06T03:51:01.178Z,87.70
2023-02-06T03:53:35.728Z,88.11
2023-02-06T03:56:13.563Z,88.21
2023-02-06T03:58:41.601Z,87.78
2023-02-06T04:01:10.272Z,88.15
2023-02-06T04:03:38.337Z,87.69
2023-02-06T04:06:06.520Z,88.21
2023-02-06T04:08:35.916Z,87.61
2023-02-06T04:11:04.006Z,88.10
2023-02-06T04:13:32.087Z,87.49
2023-02-06T04:16:00.442Z,87.25
2023-02-06T04:18:28.512Z,87.85
2023-02-06T04:20:56.787Z,88.39
2023-02-06T04:23:24.839Z,88.59
2023-02-06T04:25:54.243Z,88.37
2023-02-06T04:28:22.371Z,88.18
2023-02-06T04:30:50.665Z,88.08
2023-02-06T04:33:19.180Z,87.93
2023-02-06T04:35:49.187Z,87.65
2023-02-06T04:38:17.348Z,88.63
2023-02-06T04:40:45.595Z,87.95
2023-02-06T04:43:15.001Z,88.32
2023-02-06T04:45:43.015Z,88.71
2023-02-06T04:48:11.038Z,88.79
2023-02-06T04:50:39.099Z,88.37
2023-02-06T04:53:07.199Z,88.60
2023-02-06T04:55:37.069Z,88.17
2023-02-06T04:58:05.312Z,88.85
2023-02-06T05:00:35.680Z,88.44
2023-02-06T05:03:04.424Z,87.86
2023-02-06T05:05:32.982Z,88.90
2023-02-06T05:08:01.099Z,88.99
2023-02-06T05:10:29.226Z,88.34
2023-02-06T05:12:57.263Z,88.97
2023-02-06T05:15:25.293Z,88.25
2023-02-06T05:17:55.595Z,88.64
2023-02-06T05:20:23.968Z,89.05
2023-02-06T05:22:52.018Z,88.47
2023-02-06T05:25:20.155Z,89.28
2023-02-06T05:27:48.515Z,89.28
2023-02-06T05:30:16.737Z,88.47
2023-02-06T05:32:45.048Z,87.97
2023-02-06T05:35:14.467Z,88.64
2023-02-06T05:37:42.486Z,87.83
2023-02-06T05:40:12.613Z,87.88
2023-02-06T05:42:40.685Z,88.21
2023-02-06T05:45:10.309Z,88.74
2023-02-06T05:47:38.362Z,88.34
2023-02-06T05:50:07.756Z,87.95
2023-02-06T05:52:37.213Z,87.80
2023-02-06T05:55:05.760Z,88.41
2023-02-06T05:57:33.980Z,88.54
2023-02-06T06:00:02.287Z,87.30
2023-02-06T06:02:30.312Z,86.93
2023-02-06T06:04:58.550Z,87.65
2023-02-06T06:07:26.686Z,87.92
2023-02-06T06:09:56.154Z,88.15
2023-02-06T06:12:24.271Z,87.83
2023-02-06T06:14:52.308Z,87.45
2023-02-06T06:17:20.365Z,87.20
2023-02-06T06:19:48.409Z,88.38
2023-02-06T06:22:16.492Z,88.15
2023-02-06T06:24:44.540Z,88.14
2023-02-06T06:27:13.936Z,86.88
2023-02-06T06:29:42.034Z,88.04
2023-02-06T06:32:10.139Z,88.15
2023-02-06T06:34:38.257Z,87.28
2023-02-06T06:37:06.335Z,86.81
2023-02-06T06:39:34.364Z,87.03
2023-02-06T06:42:04.307Z,88.13
2023-02-06T06:44:33.680Z,86.91
2023-02-06T06:47:01.689Z,86.48
2023-02-06T06:49:29.721Z,86.12
2023-02-06T06:51:59.404Z,86.98
2023-02-06T06:54:27.583Z,86.44
2023-02-06T06:56:55.964Z,86.92
2023-02-06T06:59:24.029Z,86.93
2023-02-06T07:01:53.464Z,87.25
2023-02-06T07:04:21.887Z,86.74
2023-02-06T07:06:50.172Z,86.81
2023-02-06T07:09:18.194Z,86.60
2023-02-06T07:11:46.201Z,87.53
2023-02-06T07:14:14.449Z,86.87
2023-02-06T07:16:42.510Z,86.90
2023-02-06T07:19:11.936Z,88.58
2023-02-06T07:21:39.992Z,88.00
2023-02-06T07:24:08.837Z,87.60
2023-02-06T07:26:37.067Z,89.00
2023-02-06T07:29:05.401Z,89.17
2023-02-06T07:31:33.693Z,87.03
2023-02-06T07:34:02.206Z,88.28
2023-02-06T07:36:31.908Z,87.51
2023-02-06T07:38:59.964Z,88.08
2023-02-06T07:41:27.987Z,88.48
2023-02-06T07:43:56.393Z,87.93
2023-02-06T07:46:24.497Z,87.25
2023-02-06T07:48:52.885Z,88.07
2023-02-06T07:51:20.967Z,88.26
2023-02-06T07:53:51.122Z,88.70
2023-02-06T07:56:23.172Z,89.33
2023-02-06T07:58:53.100Z,88.50
2023-02-06T08:01:22.109Z,88.76
2023-02-06T08:03:51.131Z,89.28
2023-02-06T08:06:23.255Z,88.72
2023-02-06T08:08:57.344Z,89.96
2023-02-06T08:11:27.757Z,88.96
2023-02-06T08:13:55.780Z,88.81
2023-02-06T08:16:25.449Z,89.99
2023-02-06T08:18:54.007Z,88.74
2023-02-06T08:21:24.952Z,88.31
2023-02-06T08:23:57.797Z,88.39
2023-02-06T08:26:28.064Z,88.49
2023-02-06T08:28:58.103Z,88.05
2023-02-06T08:31:29.295Z,89.78
2023-02-06T08:33:57.732Z,89.39
2023-02-06T08:36:27.310Z,89.00
2023-02-06T08:38:57.001Z,89.50
2023-02-06T08:41:28.007Z,88.51
2023-02-06T08:43:58.953Z,88.44
2023-02-06T08:46:31.646Z,89.00
2023-02-06T08:49:03.850Z,87.76
2023-02-06T08:51:32.771Z,87.71
2023-02-06T08:54:05.460Z,88.43
2023-02-06T08:56:36.549Z,88.49
2023-02-06T08:59:06.620Z,88.69
2023-02-06T09:01:37.553Z,88.65
2023-02-06T09:04:09.392Z,89.54
2023-02-06T09:06:41.311Z,89.61
2023-02-06T09:09:13.311Z,89.55
2023-02-06T09:11:42.505Z,89.07
2023-02-06T09:14:16.642Z,89.18
2023-02-06T09:16:47.819Z,88.78
2023-02-06T09:19:15.954Z,88.49
2023-02-06T09:21:43.984Z,88.13
2023-02-06T09:24:13.393Z,87.91
2023-02-06T09:26:58.480Z,89.08
2023-02-06T09:29:29.017Z,88.01
2023-02-06T09:31:58.049Z,88.51
2023-02-06T09:34:26.905Z,88.63
2023-02-06T09:36:56.630Z,88.67
2023-02-06T09:39:26.894Z,88.83
2023-02-06T09:42:01.053Z,87.54
2023-02-06T09:44:34.237Z,87.89
2023-02-06T09:47:14.329Z,87.66
2023-02-06T09:49:51.428Z,87.56
2023-02-06T09:52:53.465Z,86.93
2023-02-06T09:55:34.252Z,86.07
2023-02-06T09:58:19.092Z,86.62
2023-02-06T10:00:54.356Z,86.32
2023-02-06T10:03:44.943Z,85.53
2023-02-06T10:06:21.834Z,86.42
2023-02-06T10:09:01.258Z,86.75
2023-02-06T10:11:45.040Z,86.29
2023-02-06T10:14:23.195Z,85.71
2023-02-06T10:16:59.981Z,86.03
2023-02-06T10:19:44.125Z,85.92
2023-02-06T10:22:20.888Z,86.31
2023-02-06T10:25:04.408Z,86.30
2023-02-06T10:27:36.390Z,86.45
2023-02-06T10:30:05.214Z,86.41
2023-02-06T10:32:46.844Z,86.76
2023-02-06T10:35:30.861Z,86.32
2023-02-06T10:38:26.492Z,86.80
2023-02-06T10:41:03.880Z,85.86
2023-02-06T10:43:47.942Z,86.78
2023-02-06T10:46:50.677Z,86.19
2023-02-06T10:49:33.833Z,85.78
2023-02-06T10:52:15.758Z,85.93
2023-02-06T10:54:53.076Z,86.47
2023-02-06T10:57:27.773Z,85.54
2023-02-06T11:00:02.703Z,85.83
2023-02-06T11:02:44.116Z,85.76
2023-02-06T11:05:20.113Z,85.50
2023-02-06T11:07:53.761Z,85.80
2023-02-06T11:10:25.367Z,85.61
2023-02-06T11:13:03.861Z,86.05
2023-02-06T11:15:39.900Z,84.69
2023-02-06T11:18:18.493Z,85.18
2023-02-06T11:20:50.130Z,83.90
2023-02-06T11:23:21.997Z,84.64
2023-02-06T11:26:04.217Z,84.62
2023-02-06T11:28:35.012Z,84.58
2023-02-06T11:31:07.875Z,83.98
2023-02-06T11:33:47.280Z,84.17
2023-02-06T11:36:27.325Z,83.66
2023-02-06T11:38:59.857Z,83.50
2023-02-06T11:41:29.519Z,83.88
2023-02-06T11:44:02.795Z,84.49
2023-02-06T11:46:35.109Z,83.60
2023-02-06T11:49:09.191Z,83.12
2023-02-06T11:51:51.529Z,83.41
2023-02-06T11:54:24.983Z,83.83
2023-02-06T11:57:04.218Z,84.33
2023-02-06T11:59:35.322Z,82.78
2023-02-06T12:02:28.329Z,82.93
2023-02-06T12:05:11.449Z,83.38
2023-02-06T12:07:44.225Z,82.80
2023-02-06T12:10:15.928Z,82.66
2023-02-06T12:12:50.723Z,82.78
2023-02-06T12:15:44.783Z,82.63
2023-02-06T12:18:19.664Z,82.48
2023-02-06T12:20:55.304Z,82.14
2023-02-06T12:23:28.773Z,82.61
2023-02-06T12:26:01.806Z,82.28
2023-02-06T12:28:38.286Z,82.08
2023-02-06T12:31:19.221Z,82.67
2023-02-06T12:33:55.154Z,81.87
2023-02-06T12:36:26.467Z,81.86
2023-02-06T12:39:01.810Z,80.83
2023-02-06T12:41:53.034Z,80.65
2023-02-06T12:44:31.156Z,81.27
2023-02-06T12:47:10.930Z,81.41
2023-02-06T12:49:54.297Z,80.17
2023-02-06T12:52:31.051Z,80.22
2023-02-06T12:55:14.471Z,79.94
2023-02-06T12:57:43.389Z,79.20
2023-02-06T13:00:51.366Z,80.60
2023-02-06T13:03:33.665Z,79.49
2023-02-06T13:06:19.170Z,79.02
2023-02-06T13:08:55.940Z,78.78
2023-02-06T13:11:32.473Z,78.63
2023-02-06T13:14:05.872Z,78.06
2023-02-06T13:16:53.629Z,77.35
2023-02-06T13:19:50.491Z,77.57
2023-02-06T13:22:44.757Z,76.60
2023-02-06T13:25:49.482Z,78.51
2023-02-06T13:28:58.926Z,74.94
2023-02-06T13:31:36.073Z,74.26
2023-02-06T13:34:18.240Z,75.52
2023-02-06T13:36:53.339Z,74.80
2023-02-06T13:39:33.590Z,75.26
2023-02-06T13:42:41.800Z,74.29
2023-02-06T13:45:21.340Z,71.66
2023-02-06T13:48:40.946Z,72.72
2023-02-06T13:51:50.205Z,73.55
2023-02-06T13:54:44.578Z,75.19
2023-02-06T13:57:54.313Z,73.98
2023-02-06T14:00:28.802Z,75.12
2023-02-06T14:03:13.675Z,74.99
2023-02-06T14:05:59.640Z,75.19
2023-02-06T14:08:44.729Z,74.77
2023-02-06T14:11:55.230Z,74.09
2023-02-06T14:14:46.551Z,74.72
2023-02-06T14:17:35.108Z,75.72
2023-02-06T14:20:18.891Z,75.77
2023-02-06T14:23:02.848Z,73.18
2023-02-06T14:25:57.235Z,73.45
2023-02-06T14:28:46.471Z,72.98
2023-02-06T14:31:40.328Z,72.12
2023-02-06T14:34:34.036Z,73.37
2023-02-06T14:37:30.821Z,73.59
2023-02-06T14:40:07.496Z,72.13
2023-02-06T14:42:41.804Z,72.14
2023-02-06T14:45:30.476Z,72.61
2023-02-06T14:48:03.824Z,73.01
2023-02-06T14:50:35.704Z,72.33
2023-02-06T14:53:11.132Z,71.08
2023-02-06T14:55:44.578Z,71.22
2023-02-06T14:58:25.730Z,70.98
2023-02-06T15:00:57.577Z,71.38
2023-02-06T15:03:28.194Z,70.83
2023-02-06T15:06:03.844Z,69.74
2023-02-06T15:08:33.375Z,70.44
2023-02-06T15:11:04.873Z,69.25
2023-02-06T15:13:37.632Z,70.14
2023-02-06T15:16:10.026Z,69.45
2023-02-06T15:18:39.387Z,69.10
2023-02-06T15:21:12.412Z,69.88
2023-02-06T15:24:10.542Z,70.40
2023-02-06T15:26:54.719Z,70.06
2023-02-06T15:29:27.530Z,70.02
2023-02-06T15:32:05.160Z,70.26
2023-02-06T15:34:33.691Z,70.42
2023-02-06T15:37:01.801Z,70.23
2023-02-06T15:39:30.100Z,71.58
2023-02-06T15:41:58.383Z,70.93
2023-02-06T15:44:34.188Z,71.28
2023-02-06T15:47:08.765Z,71.30
2023-02-06T15:49:41.324Z,71.25
2023-02-06T15:52:10.784Z,71.18
2023-02-06T15:54:42.530Z,71.64
2023-02-06T15:57:34.874Z,72.50
2023-02-06T16:00:09.424Z,72.33
2023-02-06T16:02:41.885Z,72.47
2023-02-06T16:05:23.836Z,72.78
2023-02-06T16:07:52.103Z,73.10
2023-02-06T16:10:26.474Z,72.86
2023-02-06T16:12:57.306Z,73.27
2023-02-06T16:15:34.242Z,73.33
2023-02-06T16:18:29.926Z,73.15
2023-02-06T16:21:21.370Z,73.15
2023-02-06T16:23:52.692Z,73.30
2023-02-06T16:26:24.846Z,72.75
2023-02-06T16:29:00.267Z,73.64
2023-02-06T16:31:31.577Z,73.54
2023-02-06T16:34:03.239Z,73.54
2023-02-06T16:36:33.849Z,74.30
2023-02-06T16:39:04.786Z,74.22
2023-02-06T16:41:36.046Z,73.82
2023-02-06T16:44:08.461Z,74.56
2023-02-06T16:46:36.610Z,73.88
2023-02-06T16:49:12.796Z,74.29
2023-02-06T16:51:44.443Z,74.34
2023-02-06T16:54:21.401Z,74.71
2023-02-06T16:56:50.126Z,75.46
2023-02-06T16:59:18.297Z,75.18
2023-02-06T17:01:46.496Z,75.63
2023-02-06T17:04:15.952Z,76.09
2023-02-06T17:06:44.183Z,76.18
2023-02-06T17:09:18.311Z,76.04
2023-02-06T17:11:46.395Z,77.09
2023-02-06T17:14:14.511Z,77.56
2023-02-06T17:16:42.637Z,77.29
2023-02-06T17:19:14.834Z,77.06
2023-02-06T17:21:44.259Z,77.23
2023-02-06T17:24:12.294Z,77.57
2023-02-06T17:26:40.380Z,77.17
2023-02-06T17:29:08.465Z,77.57
2023-02-06T17:31:36.569Z,77.75
2023-02-06T17:34:04.760Z,77.64
2023-02-06T17:36:39.446Z,77.71
2023-02-06T17:39:08.872Z,77.83
2023-02-06T17:41:37.019Z,78.13
2023-02-06T17:44:05.772Z,77.54
2023-02-06T17:46:33.933Z,77.52
2023-02-06T17:49:02.017Z,78.02
2023-02-06T17:51:30.402Z,77.64
2023-02-06T17:53:59.057Z,77.82
2023-02-06T17:56:28.863Z,76.88
2023-02-06T17:58:57.003Z,76.76
2023-02-06T18:01:26.166Z,76.94
2023-02-06T18:03:54.364Z,77.29
2023-02-06T18:06:22.858Z,77.68
2023-02-06T18:08:51.785Z,77.21
2023-02-06T18:11:22.790Z,77.07
2023-02-06T18:13:52.351Z,76.98
2023-02-06T18:16:24.179Z,76.73
2023-02-06T18:18:52.675Z,76.40
2023-02-06T18:21:24.422Z,76.35
2023-02-06T18:23:54.310Z,76.58
2023-02-06T18:26:24.290Z,76.47
2023-02-06T18:28:53.914Z,76.07
2023-02-06T18:31:26.755Z,76.27
2023-02-06T18:33:55.312Z,76.07
2023-02-06T18:36:24.510Z,76.97
2023-02-06T18:38:53.456Z,76.21
2023-02-06T18:41:39.147Z,76.56
2023-02-06T18:44:11.254Z,76.86
2023-02-06T18:46:40.205Z,76.39
2023-02-06T18:49:08.347Z,76.62
2023-02-06T18:51:36.469Z,76.54
2023-02-06T18:54:07.708Z,77.36
2023-02-06T18:56:35.933Z,76.58
2023-02-06T18:59:04.704Z,76.61
2023-02-06T19:01:34.211Z,77.30
2023-02-06T19:04:02.290Z,77.19
2023-02-06T19:06:35.521Z,76.17
2023-02-06T19:09:07.528Z,77.15
2023-02-06T19:11:36.171Z,76.81
2023-02-06T19:14:05.545Z,76.15
2023-02-06T19:16:38.389Z,77.27
2023-02-06T19:19:08.509Z,76.66
2023-02-06T19:21:36.673Z,76.77
2023-02-06T19:24:06.051Z,77.22
2023-02-06T19:26:34.797Z,76.13
2023-02-06T19:29:02.946Z,76.83
2023-02-06T19:31:32.246Z,77.07
2023-02-06T19:34:02.858Z,78.01
2023-02-06T19:36:32.366Z,77.57
2023-02-06T19:39:03.519Z,77.30
2023-02-06T19:41:34.423Z,77.32
2023-02-06T19:44:05.566Z,77.51
2023-02-06T19:46:35.490Z,79.01
2023-02-06T19:49:08.535Z,78.19
2023-02-06T19:51:40.166Z,78.60
2023-02-06T19:54:09.284Z,79.05
2023-02-06T19:56:40.994Z,79.95
2023-02-06T19:59:17.943Z,79.80
2023-02-06T20:01:46.787Z,80.06
2023-02-06T20:04:16.728Z,79.31
2023-02-06T20:06:45.884Z,79.10
2023-02-06T20:09:16.569Z,80.16
2023-02-06T20:11:44.805Z,79.42
2023-02-06T20:14:13.379Z,80.39
2023-02-06T20:16:43.587Z,79.96
2023-02-06T20:19:20.058Z,79.93
2023-02-06T20:21:51.844Z,80.54
2023-02-06T20:24:23.715Z,80.69
2023-02-06T20:26:55.979Z,80.21
2023-02-06T20:29:27.686Z,80.32
2023-02-06T20:31:57.028Z,80.82
2023-02-06T20:34:28.569Z,81.27
2023-02-06T20:36:57.242Z,81.07
2023-02-06T20:39:27.576Z,80.55
2023-02-06T20:41:55.812Z,80.75
2023-02-06T20:44:23.998Z,81.17
2023-02-06T20:46:52.446Z,80.71
2023-02-06T20:49:23.609Z,80.90
2023-02-06T20:51:53.495Z,80.87
2023-02-06T20:54:23.190Z,79.97
2023-02-06T20:56:52.065Z,80.41
2023-02-06T20:59:21.934Z,79.95
2023-02-06T21:01:50.309Z,80.35
2023-02-06T21:04:20.897Z,79.29
2023-02-06T21:06:49.962Z,80.33
2023-02-06T21:09:20.159Z,79.42
2023-02-06T21:11:50.545Z,80.44
2023-02-06T21:14:20.430Z,80.96
2023-02-06T21:16:49.569Z,79.90
2023-02-06T21:19:21.260Z,79.78
2023-02-06T21:21:50.125Z,80.32
2023-02-06T21:24:19.728Z,79.92
2023-02-06T21:26:48.063Z,80.31
2023-02-06T21:29:16.804Z,80.51
2023-02-06T21:31:46.131Z,81.57
2023-02-06T21:34:17.417Z,81.14
2023-02-06T21:36:46.743Z,80.67
2023-02-06T21:39:20.130Z,80.80
2023-02-06T21:41:51.551Z,81.19
2023-02-06T21:44:19.745Z,81.37
2023-02-06T21:46:47.877Z,81.54
2023-02-06T21:49:16.023Z,80.74
2023-02-06T21:51:44.820Z,80.68
2023-02-06T21:54:12.906Z,80.73
2023-02-06T21:56:42.353Z,80.92
2023-02-06T21:59:12.526Z,82.18
2023-02-06T22:01:41.250Z,81.09
2023-02-06T22:04:12.129Z,81.92
2023-02-06T22:06:40.897Z,81.35
2023-02-06T22:09:16.556Z,81.02
2023-02-06T22:11:47.473Z,82.27
2023-02-06T22:14:18.426Z,81.53
2023-02-06T22:16:47.485Z,81.46
2023-02-06T22:19:17.240Z,81.85
2023-02-06T22:21:45.753Z,81.73
2023-02-06T22:24:14.462Z,82.31
2023-02-06T22:26:43.014Z,81.99
2023-02-06T22:29:16.687Z,81.95
2023-02-06T22:31:46.217Z,81.92
2023-02-06T22:34:18.550Z,82.10
2023-02-06T22:36:46.912Z,81.86
2023-02-06T22:39:16.144Z,79.86
2023-02-06T22:41:47.037Z,79.33
2023-02-06T22:44:18.550Z,80.18
2023-02-06T22:46:50.319Z,80.44
2023-02-06T22:49:20.402Z,79.55
2023-02-06T22:51:48.711Z,80.93
2023-02-06T22:54:16.929Z,80.72
2023-02-06T22:56:46.454Z,81.17
2023-02-06T22:59:18.712Z,80.55
2023-02-06T23:01:49.872Z,81.76
2023-02-06T23:04:20.722Z,80.46
2023-02-06T23:06:50.342Z,82.73
2023-02-06T23:09:21.212Z,81.35
2023-02-06T23:11:50.104Z,82.13
2023-02-06T23:14:21.053Z,81.13
2023-02-06T23:16:49.969Z,81.31
2023-02-06T23:19:19.603Z,80.86
2023-02-06T23:21:51.093Z,79.70
2023-02-06T23:24:19.972Z,80.11
2023-02-06T23:26:51.202Z,80.49
2023-02-06T23:29:22.696Z,80.04
2023-02-06T23:31:51.758Z,81.37
2023-02-06T23:34:23.563Z,80.43
2023-02-06T23:36:52.854Z,80.06
2023-02-06T23:39:21.335Z,80.11
2023-02-06T23:41:49.778Z,81.06
2023-02-06T23:44:17.900Z,80.57
2023-02-06T23:46:47.693Z,81.19
2023-02-06T23:49:15.900Z,80.90
2023-02-06T23:51:44.079Z,82.63
2023-02-06T23:54:12.244Z,81.92
2023-02-06T23:56:40.836Z,81.90
2023-02-06T23:59:08.945Z,80.80
